Terminal Aerodrome Forecast
Issued by NWS Mt. Holly, NJ

Home | Current Version | Previous Version | Text Only | Print | Product List | Glossary On
Versions: 1 2 3 4 5 6 7 8 9 10 11 12 13 14 15 16 17 18 19 20 21 22 23 24 25 26 27 28 29 30 31 32 33 34 35 36 37 38 39 40 41 42 43 44 45 46 47 48 49 50
215
FTAK31 PANC 260526
TAFABE
TAF
PABE 260526Z 2606/2706 19014KT P6SM VCSH SCT015 BKN025
      TEMPO 2606/2608 BKN012
     FM262200 20016G23KT P6SM OVC025
     FM270400 19024G30KT 4SM -SN OVC015=

USA.gov is the U.S. government's official web portal to all federal, state and local government web resources and services.